Share

Argyle, GA

Homerville (KHOE) Elev 187 ft | 31.06 °N, 82.77 °W | Change Station

Current weather conditions updated 25 minutes ago

Overcast
Overcast
59 °F
Feels Like 59 °F
N
6
Wind Variable Wind from NNE
Sunrise 6:57 AM
Sunset 8:02 PM
Moon Waning Gibbous

Today is forecast to be nearly the same temperature as yesterday.

Pressure 30.05 in
Visibility 10.0 miles
Clouds Overcast 1100 ft
Dew Point 57 °F
Humidity 94%
Rainfall 0.00 in
Snow Depth Not available.
UV 0 out of 16
Pollen 4.80 out of 12
Air Quality Not available.
Flu Activity Sporadic
METAR KHOE 200335Z AUTO 03005KT 10SM OVC011 15/14 A3005 RMK AO2

More Conditions Fewer Conditions

Pressure 30.05 in
Visibility 10.0 miles
Clouds Overcast 1100 ft
Dew Point 57 °F
Humidity 94%
Rainfall 0.00 in
Snow Depth Not available.
UV 0 out of 16
Pollen 4.80 out of 12
Air Quality Not available.
Flu Activity Sporadic
METAR KHOE 200335Z AUTO 03005KT 10SM OVC011 15/14 A3005 RMK AO2

More Conditions Fewer Conditions

10-Day Weather Forecast

Almanac

Astronomy

Apr. 20, 2014 Rise Set
Actual Time 6:57 AM EDT 8:02 PM EDT
Civil Twilight 6:32 AM EDT 8:27 PM EDT
Nautical Twilight 6:02 AM EDT 8:57 PM EDT
Astronomical Twilight 5:32 AM EDT 9:28 PM EDT
Moon 12:33 AM EDT 11:24 AM EDT
Length of Visible Light 13h 55m
Length of Day
13h 05m
Tomorrow will be 1m 44s longer.
Waning Gibbous, 74% of the Moon is Illuminated
Today
Waning Gibbous
Apr 22
Last Quarter
Apr 29
New
May 6
First Quarter
May 14
Full

Yesterday's Extremes

State Highs State Lows

Community

  • Cherry Blossoms
    Cherry Blossoms
  • White-Crowned Sparrow
    White-Crowned Sparrow
  • New Day
    New Day
  • Happy Easter!
    Happy Easter!
  • poppy bloom near Mazar-e-Sharif
    poppy bloom near Mazar-e-Sharif

WunderPhotos

Upload Photos

1,703,078 photos uploaded!

WunderBlogs® & News

Nearby

Snow Depth

Station Depth Elevation
No new snow has been reported.

Coastal Water Temperatures

Place Temperature
No Stations Reporting

Earthquake Activity

City Distance Mag. Time & Date
No recent earthquake activity has been reported nearby.
Minimum magnitude displayed is 2.5.

Nearby Weather Stations

Station Location Temp. Dew Point Humidity Wind Precip. Elev Updated Type
Courthouse, Pearson, GA 57.4 °F 55 °F 92% NNE  at  0.0 mph 0.00 in / hr 226 ft 12:00 AM EDT Rapid Fire
RAWS WAYCROSS GA, Waycross, GA 58 °F 56 °F 92% North  at  11 mph 0.00 in / hr 136 ft 11:04 PM EDT MADIS

Show More Stations Show Fewer Stations

What do you think?

We're not finished. Please let us know what you like, what you don't like, and what you are still missing.